KGGG

East Texas Regional Airport

Longview, Texas, USA
METAR KGGG 250453Z AUTO 15005KT 10SM SCT110 24/21 A3003 RMK AO2 SLP160 T02440211
Observed Flight Rules
May-25 @ 04:53 UTC (30 minutes ago) Visual Flight Rules
Wind Visibility Clouds
150° at 5 knots 10 miles
  • Scattered at 11,000' AGL
Temperatures Readings
Current 24°C / 75°F
Dewpoint 21°C / 70°F
Humidity 83%
Altimeter 30.03" Hg
Pressure 1016 hPa
Elevation 107
METAR KGGG 250453Z AUTO 15005KT 10SM SCT110 24/21 A3003 RMK AO2 SLP160 T02440211
Observed Flight Rules
May-25 @ 04:53 UTC
(30 minutes ago)
VFR
Wind Visibility
150° at 5 knots 10 miles
Clouds
  • Scattered at 11,000' AGL
Temperature Dewpoint
24°C / 75°F 21°C / 70°F
Humidity Altimeter Pressure
83% 30.03" Hg 1016 hPa